sensor_id;sensor_type;location;lat;lon;timestamp;P1;durP1;ratioP1;P2;durP2;ratioP2
27796;SDS011;15177;50.844;4.412;2023-02-24T00:01:20;27.87;;;4.87;;
27796;SDS011;15177;50.844;4.412;2023-02-24T00:03:53;29.80;;;4.67;;
27796;SDS011;15177;50.844;4.412;2023-02-24T00:06:24;26.37;;;5.47;;
27796;SDS011;15177;50.844;4.412;2023-02-24T00:09:00;38.37;;;5.63;;
27796;SDS011;15177;50.844;4.412;2023-02-24T00:11:26;28.77;;;5.33;;
27796;SDS011;15177;50.844;4.412;2023-02-24T00:13:52;35.60;;;5.43;;
27796;SDS011;15177;50.844;4.412;2023-02-24T00:16:17;38.37;;;5.10;;
27796;SDS011;15177;50.844;4.412;2023-02-24T00:18:43;26.07;;;5.17;;
27796;SDS011;15177;50.844;4.412;2023-02-24T00:21:14;26.20;;;4.93;;
27796;SDS011;15177;50.844;4.412;2023-02-24T00:23:41;49.20;;;6.20;;
27796;SDS011;15177;50.844;4.412;2023-02-24T00:26:13;36.33;;;5.43;;
27796;SDS011;15177;50.844;4.412;2023-02-24T00:28:39;23.07;;;4.67;;
27796;SDS011;15177;50.844;4.412;2023-02-24T00:31:09;27.07;;;6.13;;
27796;SDS011;15177;50.844;4.412;2023-02-24T00:33:40;26.17;;;4.70;;
27796;SDS011;15177;50.844;4.412;2023-02-24T00:36:11;42.83;;;5.43;;
27796;SDS011;15177;50.844;4.412;2023-02-24T00:38:41;30.67;;;4.93;;
27796;SDS011;15177;50.844;4.412;2023-02-24T00:41:11;40.90;;;5.43;;
27796;SDS011;15177;50.844;4.412;2023-02-24T00:43:43;35.00;;;5.40;;
27796;SDS011;15177;50.844;4.412;2023-02-24T00:46:17;31.70;;;5.43;;
27796;SDS011;15177;50.844;4.412;2023-02-24T00:48:45;43.83;;;5.93;;
27796;SDS011;15177;50.844;4.412;2023-02-24T00:51:13;31.10;;;6.17;;
27796;SDS011;15177;50.844;4.412;2023-02-24T00:53:53;34.03;;;6.47;;
27796;SDS011;15177;50.844;4.412;2023-02-24T00:56:24;28.43;;;5.00;;
27796;SDS011;15177;50.844;4.412;2023-02-24T00:58:54;32.60;;;6.27;;
27796;SDS011;15177;50.844;4.412;2023-02-24T01:01:26;41.00;;;5.43;;
27796;SDS011;15177;50.844;4.412;2023-02-24T01:03:58;31.87;;;5.33;;
27796;SDS011;15177;50.844;4.412;2023-02-24T01:06:26;46.37;;;6.07;;
27796;SDS011;15177;50.844;4.412;2023-02-24T01:08:53;35.70;;;5.77;;
27796;SDS011;15177;50.844;4.412;2023-02-24T01:11:23;25.00;;;5.37;;
27796;SDS011;15177;50.844;4.412;2023-02-24T01:14:11;31.73;;;6.80;;
27796;SDS011;15177;50.844;4.412;2023-02-24T01:16:39;29.97;;;6.20;;
27796;SDS011;15177;50.844;4.412;2023-02-24T01:19:05;25.53;;;4.93;;
27796;SDS011;15177;50.844;4.412;2023-02-24T01:21:32;29.30;;;6.17;;
27796;SDS011;15177;50.844;4.412;2023-02-24T01:23:58;29.67;;;5.50;;
27796;SDS011;15177;50.844;4.412;2023-02-24T01:26:24;35.87;;;4.90;;
27796;SDS011;15177;50.844;4.412;2023-02-24T01:28:50;38.43;;;5.63;;
27796;SDS011;15177;50.844;4.412;2023-02-24T01:31:17;24.23;;;5.33;;
27796;SDS011;15177;50.844;4.412;2023-02-24T01:33:45;34.50;;;6.17;;
27796;SDS011;15177;50.844;4.412;2023-02-24T01:36:21;23.17;;;4.97;;
27796;SDS011;15177;50.844;4.412;2023-02-24T01:38:49;23.80;;;5.43;;
27796;SDS011;15177;50.844;4.412;2023-02-24T01:41:20;43.63;;;6.07;;
27796;SDS011;15177;50.844;4.412;2023-02-24T01:43:54;39.40;;;6.97;;
27796;SDS011;15177;50.844;4.412;2023-02-24T01:46:29;38.23;;;5.33;;
27796;SDS011;15177;50.844;4.412;2023-02-24T01:48:59;32.03;;;5.47;;
27796;SDS011;15177;50.844;4.412;2023-02-24T01:51:58;37.20;;;5.67;;
27796;SDS011;15177;50.844;4.412;2023-02-24T01:54:29;28.27;;;5.57;;
27796;SDS011;15177;50.844;4.412;2023-02-24T01:56:58;34.10;;;5.13;;
27796;SDS011;15177;50.844;4.412;2023-02-24T01:59:25;30.17;;;5.53;;
27796;SDS011;15177;50.844;4.412;2023-02-24T02:01:54;37.23;;;6.90;;
27796;SDS011;15177;50.844;4.412;2023-02-24T02:04:48;29.80;;;5.77;;
27796;SDS011;15177;50.844;4.412;2023-02-24T02:07:26;31.27;;;5.87;;
27796;SDS011;15177;50.844;4.412;2023-02-24T02:09:53;33.53;;;5.63;;
27796;SDS011;15177;50.844;4.412;2023-02-24T02:12:24;29.97;;;5.27;;
27796;SDS011;15177;50.844;4.412;2023-02-24T02:14:52;21.07;;;4.03;;
27796;SDS011;15177;50.844;4.412;2023-02-24T02:17:30;35.77;;;6.97;;
27796;SDS011;15177;50.844;4.412;2023-02-24T02:37:58;30.53;;;5.17;;
27796;SDS011;15177;50.844;4.412;2023-02-24T02:40:49;28.27;;;4.80;;
27796;SDS011;15177;50.844;4.412;2023-02-24T02:43:48;28.23;;;4.20;;
27796;SDS011;15177;50.844;4.412;2023-02-24T02:46:21;26.10;;;4.90;;
27796;SDS011;15177;50.844;4.412;2023-02-24T02:51:57;18.10;;;3.90;;
27796;SDS011;15177;50.844;4.412;2023-02-24T02:57:18;27.00;;;3.50;;
27796;SDS011;15177;50.844;4.412;2023-02-24T02:59:51;27.93;;;4.27;;
27796;SDS011;15177;50.844;4.412;2023-02-24T03:02:22;25.97;;;4.40;;
27796;SDS011;15177;50.844;4.412;2023-02-24T03:04:57;29.27;;;3.73;;
27796;SDS011;15177;50.844;4.412;2023-02-24T03:07:25;17.50;;;5.97;;
27796;SDS011;15177;50.844;4.412;2023-02-24T03:09:57;24.10;;;5.07;;
27796;SDS011;15177;50.844;4.412;2023-02-24T03:12:28;24.10;;;4.17;;
27796;SDS011;15177;50.844;4.412;2023-02-24T03:14:58;18.30;;;4.00;;
27796;SDS011;15177;50.844;4.412;2023-02-24T03:17:28;21.60;;;4.83;;
27796;SDS011;15177;50.844;4.412;2023-02-24T03:20:08;24.70;;;4.50;;
27796;SDS011;15177;50.844;4.412;2023-02-24T03:23:02;28.53;;;4.60;;
27796;SDS011;15177;50.844;4.412;2023-02-24T03:25:27;25.60;;;4.90;;
27796;SDS011;15177;50.844;4.412;2023-02-24T03:28:18;23.57;;;3.47;;
27796;SDS011;15177;50.844;4.412;2023-02-24T03:31:02;15.20;;;3.73;;
27796;SDS011;15177;50.844;4.412;2023-02-24T03:34:01;17.50;;;3.73;;
27796;SDS011;15177;50.844;4.412;2023-02-24T03:36:30;19.73;;;3.87;;
27796;SDS011;15177;50.844;4.412;2023-02-24T03:38:57;19.57;;;4.33;;
27796;SDS011;15177;50.844;4.412;2023-02-24T03:41:29;23.17;;;3.97;;
27796;SDS011;15177;50.844;4.412;2023-02-24T03:44:02;19.10;;;4.27;;
27796;SDS011;15177;50.844;4.412;2023-02-24T03:46:30;21.93;;;4.53;;
27796;SDS011;15177;50.844;4.412;2023-02-24T03:48:58;19.33;;;4.07;;
27796;SDS011;15177;50.844;4.412;2023-02-24T03:51:29;15.97;;;3.07;;
27796;SDS011;15177;50.844;4.412;2023-02-24T03:56:39;18.60;;;3.90;;
27796;SDS011;15177;50.844;4.412;2023-02-24T03:59:15;16.63;;;4.87;;
27796;SDS011;15177;50.844;4.412;2023-02-24T04:04:44;21.73;;;3.33;;
27796;SDS011;15177;50.844;4.412;2023-02-24T04:07:15;22.30;;;4.63;;
27796;SDS011;15177;50.844;4.412;2023-02-24T04:12:28;19.60;;;3.70;;
27796;SDS011;15177;50.844;4.412;2023-02-24T04:16:08;18.13;;;3.53;;
27796;SDS011;15177;50.844;4.412;2023-02-24T04:18:17;21.47;;;4.37;;
27796;SDS011;15177;50.844;4.412;2023-02-24T04:20:46;23.33;;;4.50;;
27796;SDS011;15177;50.844;4.412;2023-02-24T04:23:17;34.23;;;4.90;;
27796;SDS011;15177;50.844;4.412;2023-02-24T04:25:50;16.03;;;4.27;;
27796;SDS011;15177;50.844;4.412;2023-02-24T04:28:20;29.73;;;4.70;;
27796;SDS011;15177;50.844;4.412;2023-02-24T04:30:54;14.57;;;3.77;;
27796;SDS011;15177;50.844;4.412;2023-02-24T04:33:22;22.97;;;4.30;;
27796;SDS011;15177;50.844;4.412;2023-02-24T04:35:50;17.77;;;4.20;;
27796;SDS011;15177;50.844;4.412;2023-02-24T04:38:17;19.83;;;3.97;;
27796;SDS011;15177;50.844;4.412;2023-02-24T04:40:44;19.90;;;3.30;;
27796;SDS011;15177;50.844;4.412;2023-02-24T04:43:10;13.13;;;2.93;;
27796;SDS011;15177;50.844;4.412;2023-02-24T04:45:37;17.23;;;3.23;;
27796;SDS011;15177;50.844;4.412;2023-02-24T04:48:06;22.13;;;3.73;;
27796;SDS011;15177;50.844;4.412;2023-02-24T04:50:37;20.13;;;3.47;;
27796;SDS011;15177;50.844;4.412;2023-02-24T04:53:06;17.43;;;2.80;;
27796;SDS011;15177;50.844;4.412;2023-02-24T04:55:38;15.53;;;3.77;;
27796;SDS011;15177;50.844;4.412;2023-02-24T04:58:10;22.37;;;3.77;;
27796;SDS011;15177;50.844;4.412;2023-02-24T05:00:38;16.57;;;4.10;;
27796;SDS011;15177;50.844;4.412;2023-02-24T05:03:05;14.93;;;2.93;;
27796;SDS011;15177;50.844;4.412;2023-02-24T05:05:32;22.27;;;2.97;;
27796;SDS011;15177;50.844;4.412;2023-02-24T05:07:59;23.93;;;5.53;;
27796;SDS011;15177;50.844;4.412;2023-02-24T05:10:27;19.60;;;3.90;;
27796;SDS011;15177;50.844;4.412;2023-02-24T05:12:54;15.90;;;4.17;;
27796;SDS011;15177;50.844;4.412;2023-02-24T05:15:22;19.27;;;3.77;;
27796;SDS011;15177;50.844;4.412;2023-02-24T05:17:55;19.10;;;4.10;;
27796;SDS011;15177;50.844;4.412;2023-02-24T05:20:27;18.87;;;4.53;;
27796;SDS011;15177;50.844;4.412;2023-02-24T05:23:12;20.63;;;4.00;;
27796;SDS011;15177;50.844;4.412;2023-02-24T05:25:37;22.50;;;3.93;;
27796;SDS011;15177;50.844;4.412;2023-02-24T05:28:06;15.63;;;4.53;;
27796;SDS011;15177;50.844;4.412;2023-02-24T05:30:32;28.57;;;5.63;;
27796;SDS011;15177;50.844;4.412;2023-02-24T05:32:58;27.57;;;5.57;;
27796;SDS011;15177;50.844;4.412;2023-02-24T05:35:25;21.07;;;6.73;;
27796;SDS011;15177;50.844;4.412;2023-02-24T05:37:51;21.33;;;4.73;;
27796;SDS011;15177;50.844;4.412;2023-02-24T05:40:18;25.73;;;4.90;;
27796;SDS011;15177;50.844;4.412;2023-02-24T05:42:47;24.67;;;4.87;;
27796;SDS011;15177;50.844;4.412;2023-02-24T05:45:13;16.17;;;4.17;;
27796;SDS011;15177;50.844;4.412;2023-02-24T05:47:39;19.77;;;4.53;;
27796;SDS011;15177;50.844;4.412;2023-02-24T05:50:05;13.70;;;3.43;;
27796;SDS011;15177;50.844;4.412;2023-02-24T05:52:33;31.57;;;4.57;;
27796;SDS011;15177;50.844;4.412;2023-02-24T05:55:01;24.27;;;4.03;;
27796;SDS011;15177;50.844;4.412;2023-02-24T05:57:30;27.20;;;5.30;;
27796;SDS011;15177;50.844;4.412;2023-02-24T05:59:59;19.67;;;4.37;;
27796;SDS011;15177;50.844;4.412;2023-02-24T06:02:40;41.77;;;7.73;;
27796;SDS011;15177;50.844;4.412;2023-02-24T06:05:13;12.33;;;2.87;;
27796;SDS011;15177;50.844;4.412;2023-02-24T06:07:49;8.63;;;2.47;;
27796;SDS011;15177;50.844;4.412;2023-02-24T06:10:20;15.60;;;3.17;;
27796;SDS011;15177;50.844;4.412;2023-02-24T06:12:46;23.90;;;3.33;;
27796;SDS011;15177;50.844;4.412;2023-02-24T06:15:12;17.83;;;3.10;;
27796;SDS011;15177;50.844;4.412;2023-02-24T06:17:38;8.80;;;3.17;;
27796;SDS011;15177;50.844;4.412;2023-02-24T06:20:04;12.97;;;3.43;;
27796;SDS011;15177;50.844;4.412;2023-02-24T06:22:39;17.10;;;3.47;;
27796;SDS011;15177;50.844;4.412;2023-02-24T06:25:07;13.53;;;4.00;;
27796;SDS011;15177;50.844;4.412;2023-02-24T06:27:35;15.93;;;2.80;;
27796;SDS011;15177;50.844;4.412;2023-02-24T06:30:03;20.57;;;3.60;;
27796;SDS011;15177;50.844;4.412;2023-02-24T06:32:34;10.27;;;3.30;;
27796;SDS011;15177;50.844;4.412;2023-02-24T06:35:00;13.73;;;3.67;;
27796;SDS011;15177;50.844;4.412;2023-02-24T06:37:26;13.57;;;4.07;;
27796;SDS011;15177;50.844;4.412;2023-02-24T06:39:54;11.03;;;3.43;;
27796;SDS011;15177;50.844;4.412;2023-02-24T06:42:19;15.33;;;3.20;;
27796;SDS011;15177;50.844;4.412;2023-02-24T06:44:45;14.03;;;4.10;;
27796;SDS011;15177;50.844;4.412;2023-02-24T06:47:12;13.23;;;3.37;;
27796;SDS011;15177;50.844;4.412;2023-02-24T06:49:40;16.53;;;3.83;;
27796;SDS011;15177;50.844;4.412;2023-02-24T06:52:09;15.60;;;3.73;;
27796;SDS011;15177;50.844;4.412;2023-02-24T06:54:35;12.10;;;3.70;;
27796;SDS011;15177;50.844;4.412;2023-02-24T06:57:02;12.90;;;4.87;;
27796;SDS011;15177;50.844;4.412;2023-02-24T06:59:28;24.33;;;4.53;;
27796;SDS011;15177;50.844;4.412;2023-02-24T07:01:55;17.43;;;4.73;;
27796;SDS011;15177;50.844;4.412;2023-02-24T07:04:23;13.80;;;3.87;;
27796;SDS011;15177;50.844;4.412;2023-02-24T07:06:54;21.30;;;3.47;;
27796;SDS011;15177;50.844;4.412;2023-02-24T07:09:22;21.60;;;4.00;;
27796;SDS011;15177;50.844;4.412;2023-02-24T07:11:50;15.77;;;4.27;;
27796;SDS011;15177;50.844;4.412;2023-02-24T07:14:21;13.53;;;3.33;;
27796;SDS011;15177;50.844;4.412;2023-02-24T07:16:48;10.53;;;2.27;;
27796;SDS011;15177;50.844;4.412;2023-02-24T07:19:28;12.43;;;2.70;;
27796;SDS011;15177;50.844;4.412;2023-02-24T07:22:00;14.63;;;2.63;;
27796;SDS011;15177;50.844;4.412;2023-02-24T07:24:29;18.17;;;3.70;;
27796;SDS011;15177;50.844;4.412;2023-02-24T07:29:35;21.70;;;2.60;;
27796;SDS011;15177;50.844;4.412;2023-02-24T07:32:04;13.07;;;2.13;;
27796;SDS011;15177;50.844;4.412;2023-02-24T07:34:32;11.87;;;2.90;;
27796;SDS011;15177;50.844;4.412;2023-02-24T07:36:58;17.20;;;3.50;;
27796;SDS011;15177;50.844;4.412;2023-02-24T07:39:30;18.90;;;3.37;;
27796;SDS011;15177;50.844;4.412;2023-02-24T07:41:56;17.67;;;3.00;;
27796;SDS011;15177;50.844;4.412;2023-02-24T07:44:23;16.93;;;2.83;;
27796;SDS011;15177;50.844;4.412;2023-02-24T07:46:49;10.00;;;3.17;;
27796;SDS011;15177;50.844;4.412;2023-02-24T07:49:17;16.50;;;2.97;;
27796;SDS011;15177;50.844;4.412;2023-02-24T07:51:45;15.77;;;2.93;;
27796;SDS011;15177;50.844;4.412;2023-02-24T07:54:16;22.70;;;4.13;;
27796;SDS011;15177;50.844;4.412;2023-02-24T07:56:45;14.93;;;4.00;;
27796;SDS011;15177;50.844;4.412;2023-02-24T07:59:22;13.20;;;2.67;;
27796;SDS011;15177;50.844;4.412;2023-02-24T08:01:49;16.00;;;2.30;;
27796;SDS011;15177;50.844;4.412;2023-02-24T08:04:19;11.07;;;2.73;;
27796;SDS011;15177;50.844;4.412;2023-02-24T08:06:47;14.27;;;2.27;;
27796;SDS011;15177;50.844;4.412;2023-02-24T08:09:19;16.20;;;2.57;;
27796;SDS011;15177;50.844;4.412;2023-02-24T08:12:17;15.47;;;3.17;;
27796;SDS011;15177;50.844;4.412;2023-02-24T08:14:45;15.53;;;3.07;;
27796;SDS011;15177;50.844;4.412;2023-02-24T08:17:15;11.87;;;2.47;;
27796;SDS011;15177;50.844;4.412;2023-02-24T08:19:44;20.40;;;2.60;;
27796;SDS011;15177;50.844;4.412;2023-02-24T08:22:14;24.50;;;3.40;;
27796;SDS011;15177;50.844;4.412;2023-02-24T08:24:44;18.27;;;3.00;;
27796;SDS011;15177;50.844;4.412;2023-02-24T08:27:29;14.97;;;2.50;;
27796;SDS011;15177;50.844;4.412;2023-02-24T08:29:57;16.70;;;3.17;;
27796;SDS011;15177;50.844;4.412;2023-02-24T08:32:43;22.47;;;3.43;;
27796;SDS011;15177;50.844;4.412;2023-02-24T08:35:14;18.77;;;3.20;;
27796;SDS011;15177;50.844;4.412;2023-02-24T08:37:42;15.73;;;3.67;;
27796;SDS011;15177;50.844;4.412;2023-02-24T08:40:13;16.43;;;3.30;;
27796;SDS011;15177;50.844;4.412;2023-02-24T08:45:45;17.53;;;3.90;;
27796;SDS011;15177;50.844;4.412;2023-02-24T08:48:19;19.20;;;3.07;;
27796;SDS011;15177;50.844;4.412;2023-02-24T08:50:52;14.60;;;3.07;;
27796;SDS011;15177;50.844;4.412;2023-02-24T08:53:19;18.63;;;3.93;;
27796;SDS011;15177;50.844;4.412;2023-02-24T08:55:47;16.07;;;3.10;;
27796;SDS011;15177;50.844;4.412;2023-02-24T08:58:19;22.17;;;4.73;;
27796;SDS011;15177;50.844;4.412;2023-02-24T09:00:54;19.73;;;4.17;;
27796;SDS011;15177;50.844;4.412;2023-02-24T09:03:24;16.70;;;4.23;;
27796;SDS011;15177;50.844;4.412;2023-02-24T09:08:28;11.53;;;2.90;;
27796;SDS011;15177;50.844;4.412;2023-02-24T09:11:02;17.07;;;3.23;;
27796;SDS011;15177;50.844;4.412;2023-02-24T09:13:35;14.37;;;2.87;;
27796;SDS011;15177;50.844;4.412;2023-02-24T09:16:15;18.27;;;3.17;;
27796;SDS011;15177;50.844;4.412;2023-02-24T09:18:43;19.33;;;4.03;;
27796;SDS011;15177;50.844;4.412;2023-02-24T09:21:10;16.60;;;3.00;;
27796;SDS011;15177;50.844;4.412;2023-02-24T09:23:58;16.10;;;3.13;;
27796;SDS011;15177;50.844;4.412;2023-02-24T09:26:27;11.23;;;2.40;;
27796;SDS011;15177;50.844;4.412;2023-02-24T09:28:57;11.37;;;2.53;;
27796;SDS011;15177;50.844;4.412;2023-02-24T09:31:22;13.53;;;3.77;;
27796;SDS011;15177;50.844;4.412;2023-02-24T09:34:04;11.67;;;2.77;;
27796;SDS011;15177;50.844;4.412;2023-02-24T09:36:35;10.63;;;2.70;;
27796;SDS011;15177;50.844;4.412;2023-02-24T09:39:09;13.80;;;2.90;;
27796;SDS011;15177;50.844;4.412;2023-02-24T09:41:45;9.80;;;3.00;;
27796;SDS011;15177;50.844;4.412;2023-02-24T09:47:11;13.17;;;2.73;;
27796;SDS011;15177;50.844;4.412;2023-02-24T09:49:47;10.70;;;3.63;;
27796;SDS011;15177;50.844;4.412;2023-02-24T09:52:20;15.07;;;3.50;;
27796;SDS011;15177;50.844;4.412;2023-02-24T09:55:04;14.83;;;3.33;;
27796;SDS011;15177;50.844;4.412;2023-02-24T09:58:04;12.23;;;3.00;;
27796;SDS011;15177;50.844;4.412;2023-02-24T10:03:53;9.57;;;2.60;;
27796;SDS011;15177;50.844;4.412;2023-02-24T10:06:39;11.07;;;3.03;;
27796;SDS011;15177;50.844;4.412;2023-02-24T10:11:46;10.90;;;2.83;;
27796;SDS011;15177;50.844;4.412;2023-02-24T10:18:01;9.90;;;3.00;;
27796;SDS011;15177;50.844;4.412;2023-02-24T10:23:52;16.13;;;3.47;;
27796;SDS011;15177;50.844;4.412;2023-02-24T10:26:42;13.10;;;2.97;;
27796;SDS011;15177;50.844;4.412;2023-02-24T10:29:26;18.40;;;2.97;;
27796;SDS011;15177;50.844;4.412;2023-02-24T10:32:17;16.00;;;2.90;;
27796;SDS011;15177;50.844;4.412;2023-02-24T10:35:16;15.27;;;3.20;;
27796;SDS011;15177;50.844;4.412;2023-02-24T10:37:43;12.03;;;3.27;;
27796;SDS011;15177;50.844;4.412;2023-02-24T10:40:10;10.60;;;3.00;;
27796;SDS011;15177;50.844;4.412;2023-02-24T10:42:41;12.50;;;3.30;;
27796;SDS011;15177;50.844;4.412;2023-02-24T10:45:19;12.40;;;4.33;;
27796;SDS011;15177;50.844;4.412;2023-02-24T10:47:53;16.27;;;3.57;;
27796;SDS011;15177;50.844;4.412;2023-02-24T10:50:32;11.63;;;3.43;;
27796;SDS011;15177;50.844;4.412;2023-02-24T10:53:14;12.50;;;3.77;;
27796;SDS011;15177;50.844;4.412;2023-02-24T10:55:55;10.63;;;4.03;;
27796;SDS011;15177;50.844;4.412;2023-02-24T10:58:41;23.23;;;3.20;;
27796;SDS011;15177;50.844;4.412;2023-02-24T11:01:35;15.60;;;3.87;;
27796;SDS011;15177;50.844;4.412;2023-02-24T11:04:18;17.97;;;3.17;;
27796;SDS011;15177;50.844;4.412;2023-02-24T11:07:04;12.17;;;3.30;;
27796;SDS011;15177;50.844;4.412;2023-02-24T11:09:36;15.00;;;3.50;;
27796;SDS011;15177;50.844;4.412;2023-02-24T11:12:23;14.37;;;3.17;;
27796;SDS011;15177;50.844;4.412;2023-02-24T11:15:23;14.90;;;3.70;;
27796;SDS011;15177;50.844;4.412;2023-02-24T11:18:15;18.23;;;3.97;;
27796;SDS011;15177;50.844;4.412;2023-02-24T11:20:49;12.97;;;3.50;;
27796;SDS011;15177;50.844;4.412;2023-02-24T11:23:20;11.40;;;4.07;;
27796;SDS011;15177;50.844;4.412;2023-02-24T11:34:11;17.77;;;4.13;;
27796;SDS011;15177;50.844;4.412;2023-02-24T11:37:07;12.53;;;3.33;;
27796;SDS011;15177;50.844;4.412;2023-02-24T11:39:50;14.07;;;4.20;;
27796;SDS011;15177;50.844;4.412;2023-02-24T11:42:22;9.17;;;3.77;;
27796;SDS011;15177;50.844;4.412;2023-02-24T11:47:44;9.30;;;3.33;;
27796;SDS011;15177;50.844;4.412;2023-02-24T11:53:27;13.70;;;3.30;;
27796;SDS011;15177;50.844;4.412;2023-02-24T11:56:01;19.03;;;3.47;;
27796;SDS011;15177;50.844;4.412;2023-02-24T11:58:38;10.17;;;2.90;;
27796;SDS011;15177;50.844;4.412;2023-02-24T12:01:19;18.47;;;3.13;;
27796;SDS011;15177;50.844;4.412;2023-02-24T12:04:35;15.17;;;3.87;;
27796;SDS011;15177;50.844;4.412;2023-02-24T12:09:25;10.17;;;3.50;;
27796;SDS011;15177;50.844;4.412;2023-02-24T12:11:58;9.07;;;3.17;;
27796;SDS011;15177;50.844;4.412;2023-02-24T12:14:32;15.00;;;3.60;;
27796;SDS011;15177;50.844;4.412;2023-02-24T12:19:59;7.90;;;3.10;;
27796;SDS011;15177;50.844;4.412;2023-02-24T12:22:45;13.13;;;3.87;;
27796;SDS011;15177;50.844;4.412;2023-02-24T12:25:21;16.67;;;5.33;;
27796;SDS011;15177;50.844;4.412;2023-02-24T12:28:11;13.13;;;3.37;;
27796;SDS011;15177;50.844;4.412;2023-02-24T12:52:30;19.27;;;3.90;;
27796;SDS011;15177;50.844;4.412;2023-02-24T12:58:08;10.20;;;4.13;;
27796;SDS011;15177;50.844;4.412;2023-02-24T13:14:03;14.73;;;4.57;;
27796;SDS011;15177;50.844;4.412;2023-02-24T13:16:50;15.03;;;4.23;;
27796;SDS011;15177;50.844;4.412;2023-02-24T13:19:27;10.37;;;4.27;;
27796;SDS011;15177;50.844;4.412;2023-02-24T13:21:59;11.10;;;4.47;;
27796;SDS011;15177;50.844;4.412;2023-02-24T13:27:40;12.27;;;4.30;;
27796;SDS011;15177;50.844;4.412;2023-02-24T13:32:37;11.13;;;4.57;;
27796;SDS011;15177;50.844;4.412;2023-02-24T13:37:41;23.97;;;5.63;;
27796;SDS011;15177;50.844;4.412;2023-02-24T13:45:20;20.73;;;6.80;;
27796;SDS011;15177;50.844;4.412;2023-02-24T13:47:53;21.60;;;5.63;;
27796;SDS011;15177;50.844;4.412;2023-02-24T13:59:00;10.70;;;5.73;;
27796;SDS011;15177;50.844;4.412;2023-02-24T14:04:31;13.23;;;5.80;;
27796;SDS011;15177;50.844;4.412;2023-02-24T14:07:03;21.37;;;6.80;;
27796;SDS011;15177;50.844;4.412;2023-02-24T14:09:36;14.90;;;6.80;;
27796;SDS011;15177;50.844;4.412;2023-02-24T14:12:14;16.57;;;7.37;;
27796;SDS011;15177;50.844;4.412;2023-02-24T14:14:43;15.17;;;7.40;;
27796;SDS011;15177;50.844;4.412;2023-02-24T14:25:10;15.73;;;8.50;;
27796;SDS011;15177;50.844;4.412;2023-02-24T14:27:37;18.43;;;8.97;;
27796;SDS011;15177;50.844;4.412;2023-02-24T14:30:04;18.07;;;9.63;;
27796;SDS011;15177;50.844;4.412;2023-02-24T14:32:32;20.10;;;9.43;;
27796;SDS011;15177;50.844;4.412;2023-02-24T14:34:58;19.00;;;9.00;;
27796;SDS011;15177;50.844;4.412;2023-02-24T14:37:25;19.13;;;10.20;;
27796;SDS011;15177;50.844;4.412;2023-02-24T14:39:58;20.27;;;8.63;;
27796;SDS011;15177;50.844;4.412;2023-02-24T14:42:25;15.90;;;8.00;;
27796;SDS011;15177;50.844;4.412;2023-02-24T14:44:55;25.80;;;8.90;;
27796;SDS011;15177;50.844;4.412;2023-02-24T14:47:23;20.67;;;9.37;;
27796;SDS011;15177;50.844;4.412;2023-02-24T14:49:59;24.50;;;10.03;;
27796;SDS011;15177;50.844;4.412;2023-02-24T14:52:34;25.43;;;9.83;;
27796;SDS011;15177;50.844;4.412;2023-02-24T14:58:02;23.67;;;10.60;;
27796;SDS011;15177;50.844;4.412;2023-02-24T15:00:39;24.03;;;10.80;;
27796;SDS011;15177;50.844;4.412;2023-02-24T15:03:21;19.27;;;9.70;;
27796;SDS011;15177;50.844;4.412;2023-02-24T15:05:48;21.17;;;10.30;;
27796;SDS011;15177;50.844;4.412;2023-02-24T15:13:42;17.53;;;9.33;;
27796;SDS011;15177;50.844;4.412;2023-02-24T15:16:25;17.13;;;9.07;;
27796;SDS011;15177;50.844;4.412;2023-02-24T15:18:57;22.20;;;10.27;;
27796;SDS011;15177;50.844;4.412;2023-02-24T15:21:28;17.90;;;9.57;;
27796;SDS011;15177;50.844;4.412;2023-02-24T15:23:59;20.90;;;10.27;;
27796;SDS011;15177;50.844;4.412;2023-02-24T15:26:28;22.37;;;10.83;;
27796;SDS011;15177;50.844;4.412;2023-02-24T15:28:57;25.50;;;10.87;;
27796;SDS011;15177;50.844;4.412;2023-02-24T15:31:35;21.43;;;9.50;;
27796;SDS011;15177;50.844;4.412;2023-02-24T15:34:01;24.07;;;10.57;;
27796;SDS011;15177;50.844;4.412;2023-02-24T15:36:30;17.57;;;9.93;;
27796;SDS011;15177;50.844;4.412;2023-02-24T15:39:07;19.97;;;10.50;;
27796;SDS011;15177;50.844;4.412;2023-02-24T15:41:45;20.63;;;10.80;;
27796;SDS011;15177;50.844;4.412;2023-02-24T15:44:31;14.30;;;10.23;;
27796;SDS011;15177;50.844;4.412;2023-02-24T15:46:58;20.10;;;10.20;;
27796;SDS011;15177;50.844;4.412;2023-02-24T15:49:35;20.67;;;11.47;;
27796;SDS011;15177;50.844;4.412;2023-02-24T15:52:01;23.03;;;12.00;;
27796;SDS011;15177;50.844;4.412;2023-02-24T15:54:30;22.40;;;11.70;;
27796;SDS011;15177;50.844;4.412;2023-02-24T15:56:58;26.60;;;12.60;;
27796;SDS011;15177;50.844;4.412;2023-02-24T15:59:26;25.00;;;12.30;;
27796;SDS011;15177;50.844;4.412;2023-02-24T16:01:52;20.83;;;13.37;;
27796;SDS011;15177;50.844;4.412;2023-02-24T16:04:19;23.00;;;13.83;;
27796;SDS011;15177;50.844;4.412;2023-02-24T16:06:46;24.00;;;13.03;;
27796;SDS011;15177;50.844;4.412;2023-02-24T16:09:34;23.07;;;13.77;;
27796;SDS011;15177;50.844;4.412;2023-02-24T16:12:02;29.90;;;14.40;;
27796;SDS011;15177;50.844;4.412;2023-02-24T16:14:31;27.67;;;15.83;;
27796;SDS011;15177;50.844;4.412;2023-02-24T16:16:57;27.33;;;14.93;;
27796;SDS011;15177;50.844;4.412;2023-02-24T16:19:24;29.43;;;16.27;;
27796;SDS011;15177;50.844;4.412;2023-02-24T16:21:50;32.67;;;14.77;;
27796;SDS011;15177;50.844;4.412;2023-02-24T16:24:15;31.13;;;14.70;;
27796;SDS011;15177;50.844;4.412;2023-02-24T16:26:41;27.83;;;15.30;;
27796;SDS011;15177;50.844;4.412;2023-02-24T16:29:09;28.83;;;14.80;;
27796;SDS011;15177;50.844;4.412;2023-02-24T16:31:38;32.07;;;15.53;;
27796;SDS011;15177;50.844;4.412;2023-02-24T16:34:04;34.27;;;15.93;;
27796;SDS011;15177;50.844;4.412;2023-02-24T16:36:31;27.60;;;16.43;;
27796;SDS011;15177;50.844;4.412;2023-02-24T16:38:57;30.53;;;15.17;;
27796;SDS011;15177;50.844;4.412;2023-02-24T16:41:23;33.83;;;15.07;;
27796;SDS011;15177;50.844;4.412;2023-02-24T16:43:49;36.53;;;15.30;;
27796;SDS011;15177;50.844;4.412;2023-02-24T16:46:19;31.37;;;15.63;;
27796;SDS011;15177;50.844;4.412;2023-02-24T16:48:50;26.63;;;14.57;;
27796;SDS011;15177;50.844;4.412;2023-02-24T16:51:17;32.57;;;17.13;;
27796;SDS011;15177;50.844;4.412;2023-02-24T16:53:44;31.03;;;14.97;;
27796;SDS011;15177;50.844;4.412;2023-02-24T16:56:09;30.63;;;15.63;;
27796;SDS011;15177;50.844;4.412;2023-02-24T16:58:36;32.30;;;15.00;;
27796;SDS011;15177;50.844;4.412;2023-02-24T17:01:02;32.43;;;14.27;;
27796;SDS011;15177;50.844;4.412;2023-02-24T17:03:30;31.77;;;13.97;;
27796;SDS011;15177;50.844;4.412;2023-02-24T17:06:17;25.73;;;14.10;;
27796;SDS011;15177;50.844;4.412;2023-02-24T17:08:43;28.73;;;13.33;;
27796;SDS011;15177;50.844;4.412;2023-02-24T17:11:14;35.07;;;16.70;;
27796;SDS011;15177;50.844;4.412;2023-02-24T17:13:42;34.87;;;13.67;;
27796;SDS011;15177;50.844;4.412;2023-02-24T17:16:08;32.77;;;12.87;;
27796;SDS011;15177;50.844;4.412;2023-02-24T17:18:34;27.80;;;12.63;;
27796;SDS011;15177;50.844;4.412;2023-02-24T17:21:02;31.43;;;11.20;;
27796;SDS011;15177;50.844;4.412;2023-02-24T17:23:28;26.60;;;12.20;;
27796;SDS011;15177;50.844;4.412;2023-02-24T17:25:54;27.97;;;10.57;;
27796;SDS011;15177;50.844;4.412;2023-02-24T17:28:22;26.60;;;10.47;;
27796;SDS011;15177;50.844;4.412;2023-02-24T17:30:48;30.57;;;10.13;;
27796;SDS011;15177;50.844;4.412;2023-02-24T17:33:14;32.30;;;10.50;;
27796;SDS011;15177;50.844;4.412;2023-02-24T17:35:41;38.20;;;10.73;;
27796;SDS011;15177;50.844;4.412;2023-02-24T17:38:11;32.73;;;10.20;;